Time;durP1;ratioP1;P1;durP2;ratioP2;P2;SDS_P1;SDS_P2;PMS_P1;PMS_P2;Temp;Humidity;BMP_temperature;BMP_pressure;BME280_temperature;BME280_humidity;BME280_pressure;Samples;Min_cycle;Max_cycle;Signal;HPM_P1;HPM_P2
2022/03/19 00:00:09;;;;;;;38.03;25.30;;;9.70;77.80;;;10.29;51.35;100846.41;4848703;29;115104;-81
2022/03/19 00:06:21;;;;;;;39.13;27.70;;;8.20;76.60;;;10.20;51.46;100853.47;4848211;29;126365;-78
2022/03/19 00:12:39;;;;;;;38.90;26.13;;;9.00;77.50;;;10.17;51.24;100838.25;4848611;29;115262;-81
2022/03/19 00:29:13;;;;;;;29.97;23.13;;;9.60;78.30;;;10.23;51.65;100842.72;5806998;23;98722;-82
2022/03/19 00:32:21;;;;;;;31.87;22.77;;;8.40;77.10;;;10.25;51.55;100851.59;4813224;29;121985;-83
2022/03/19 00:44:47;;;;;;;34.90;25.53;;;9.50;78.20;;;10.15;51.80;100844.06;4846427;29;124897;-81
2022/03/19 00:56:36;;;;;;;29.13;20.93;;;8.40;77.30;;;10.05;51.55;100823.78;4835640;29;124843;-80
2022/03/19 01:06:27;;;;;;;39.33;24.43;;;8.70;77.60;;;9.99;51.57;100822.03;4847660;29;125186;-81
2022/03/19 01:12:35;;;;;;;41.97;25.93;;;8.50;77.40;;;9.86;51.88;100823.25;4840480;29;115282;-79
2022/03/19 01:18:44;;;;;;;36.90;25.53;;;8.10;77.20;;;9.81;51.80;100829.56;4841190;29;125126;-77
2022/03/19 01:24:59;;;;;;;32.43;22.90;;;8.80;77.90;;;9.82;51.59;100825.69;4842016;29;116298;-78
2022/03/19 01:31:07;;;;;;;30.30;22.03;;;7.80;76.90;;;9.78;51.67;100819.03;4847444;29;125180;-78
2022/03/19 05:20:08;;;;;;;27.07;18.80;;;8.60;75.80;;;9.09;49.96;100717.44;4920822;23;98135;-77
2022/03/19 05:26:17;;;;;;;29.47;19.43;;;6.90;74.20;;;9.04;50.24;100718.22;4847088;29;116194;-77
2022/03/19 05:32:26;;;;;;;32.10;20.60;;;7.00;74.30;;;8.97;50.29;100716.72;4847424;29;125142;-77
2022/03/19 06:23:30;;;;;;;26.93;17.90;;;8.40;75.40;;;9.10;49.66;100712.75;4791467;29;115938;-80
2022/03/19 06:29:39;;;;;;;26.90;17.97;;;7.00;74.00;;;9.17;49.54;100708.72;4809326;29;124775;-78
2022/03/19 06:49:50;;;;;;;26.80;19.10;;;8.50;74.30;;;9.43;48.84;100711.78;4827270;29;125081;-79
2022/03/19 06:55:58;;;;;;;23.83;16.10;;;8.60;74.10;;;9.48;48.88;100723.75;4772903;29;115310;-86
2022/03/19 07:02:25;;;;;;;26.67;18.73;;;9.70;74.90;;;9.55;48.54;100723.53;4780251;29;125123;-84
2022/03/19 07:08:36;;;;;;;30.63;18.53;;;7.70;72.80;;;9.57;48.26;100712.25;4783909;29;114876;-78
2022/03/19 07:14:44;;;;;;;40.73;23.33;;;7.40;72.10;;;9.51;47.92;100703.91;4772831;29;125106;-80
2022/03/19 07:17:50;;;;;;;35.60;22.50;;;8.90;73.20;;;9.56;47.92;100705.88;4767735;29;124248;-84
2022/03/19 07:20:54;;;;;;;41.70;24.80;;;7.30;71.90;;;9.56;47.81;100697.59;4787822;29;115149;-82
2022/03/19 07:23:21;;;;;;;36.40;24.27;;;8.40;72.70;;;9.57;47.62;100702.03;4797374;29;115516;-80
2022/03/19 07:25:59;;;;;;;40.00;26.30;;;8.20;72.50;;;9.57;47.80;100707.56;4822685;29;124868;-86
2022/03/19 07:32:10;;;;;;;38.07;24.20;;;8.90;72.70;;;9.61;47.52;100702.34;4816163;29;114606;-84
2022/03/19 07:47:35;;;;;;;34.97;22.80;;;9.70;73.00;;;9.97;46.90;100692.50;4827189;29;114931;-80
2022/03/19 07:53:45;;;;;;;26.57;18.07;;;8.60;71.40;;;10.09;46.78;100682.13;4826773;29;124775;-85
2022/03/19 07:59:54;;;;;;;29.20;20.27;;;8.80;70.90;;;10.19;46.17;100684.13;4830074;29;115156;-80
2022/03/19 08:03:19;;;;;;;28.67;20.03;;;9.50;71.00;;;10.27;46.08;100685.59;4812501;29;124167;-78
2022/03/19 08:09:29;;;;;;;33.90;21.87;;;8.10;69.50;;;10.39;45.65;100683.50;4848821;29;115315;-80
2022/03/19 08:15:41;;;;;;;27.00;17.83;;;9.80;70.10;;;10.55;45.36;100684.44;4848369;29;125134;-77
2022/03/19 08:18:29;;;;;;;25.47;18.40;;;10.80;69.60;;;10.63;44.37;100685.88;4832413;29;124296;-79
2022/03/19 08:24:38;;;;;;;29.70;20.87;;;9.40;68.10;;;10.72;44.21;100673.19;4829220;29;116041;-80
2022/03/19 08:30:47;;;;;;;26.90;18.77;;;9.40;67.30;;;10.84;43.34;100665.53;4835844;29;124809;-83
2022/03/19 08:40:17;;;;;;;28.20;18.67;;;10.30;65.00;;;10.91;42.46;100649.56;5720662;23;99244;-78
2022/03/19 08:43:41;;;;;;;27.67;16.43;;;10.20;65.10;;;10.98;42.75;100635.47;4815540;29;122841;-84
2022/03/19 08:49:50;;;;;;;21.00;15.33;;;10.00;64.90;;;11.15;42.71;100638.00;4829115;29;115187;-77
2022/03/19 08:52:55;;;;;;;28.93;18.37;;;10.40;65.40;;;11.26;41.92;100639.72;4797666;29;124386;-78
2022/03/19 08:59:05;;;;;;;19.43;14.80;;;10.50;64.50;;;11.39;42.25;100633.69;4847994;29;115241;-77
2022/03/19 09:05:14;;;;;;;21.30;14.47;;;9.50;64.20;;;11.52;41.94;100624.00;4828468;29;125200;-87
2022/03/19 09:11:23;;;;;;;27.33;16.80;;;10.90;63.50;;;11.60;41.38;100611.56;4829286;29;115322;-77
2022/03/19 09:17:32;;;;;;;21.13;15.30;;;10.80;62.50;;;11.76;41.04;100596.63;4815470;29;125219;-86
2022/03/19 09:23:49;;;;;;;26.77;20.10;;;9.80;61.90;;;11.87;39.54;100595.53;4827871;29;116261;-79
2022/03/19 09:27:12;;;;;;;26.77;17.90;;;10.40;60.40;;;11.88;39.90;100594.44;4796901;29;114948;-84
2022/03/19 09:33:21;;;;;;;25.60;16.00;;;10.80;59.90;;;11.90;39.87;100585.84;4815115;29;124917;-81
2022/03/19 09:35:48;;;;;;;23.00;17.00;;;10.70;60.20;;;11.96;39.68;100586.72;4814761;29;114997;-90
2022/03/19 09:42:54;;;;;;;19.70;14.70;;;9.90;59.90;;;12.04;40.07;100566.75;4807470;29;125150;-83
2022/03/19 09:54:34;;;;;;;21.80;15.40;;;11.60;59.80;;;12.28;39.52;100553.13;5279181;23;97854;-83
2022/03/19 10:00:43;;;;;;;25.73;17.87;;;11.20;59.60;;;12.38;38.44;100540.09;4847046;29;115344;-78
2022/03/19 10:13:33;;;;;;;27.77;17.73;;;11.80;58.40;;;12.48;38.06;100511.47;4846620;29;115364;-80
2022/03/19 10:19:52;;;;;;;23.53;17.47;;;11.90;57.80;;;12.57;38.17;100504.25;4826953;29;125156;-89
2022/03/19 10:22:58;;;;;;;22.27;16.43;;;11.80;57.60;;;12.63;38.09;100504.19;4810885;29;124644;-89
2022/03/19 10:29:11;;;;;;;23.63;17.67;;;10.70;56.20;;;12.68;37.39;100499.50;4846073;29;116018;-77
2022/03/19 10:32:14;;;;;;;20.33;14.90;;;13.60;58.20;;;12.76;37.90;100492.50;4846043;29;122747;-87
2022/03/19 10:53:39;;;;;;;33.90;23.40;;;11.30;55.90;;;13.39;37.15;100452.97;5526956;23;115077;-78
2022/03/19 10:59:49;;;;;;;34.40;23.50;;;12.10;56.40;;;13.39;37.20;100439.09;4846114;29;124841;-78
2022/03/19 11:06:07;;;;;;;30.10;21.27;;;11.40;55.60;;;13.43;37.85;100434.59;4846132;29;115176;-83
2022/03/19 11:12:23;;;;;;;25.60;18.30;;;12.00;56.10;;;13.54;37.65;100413.97;4845449;29;125133;-86
2022/03/19 11:25:58;;;;;;;25.43;15.93;;;13.10;56.40;;;13.80;36.16;100392.31;4845708;29;124915;-87
2022/03/19 11:35:05;;;;;;;19.37;13.63;;;13.30;53.90;;;13.84;35.53;100370.34;5344053;23;99239;-91
2022/03/19 11:38:11;;;;;;;15.50;11.50;;;13.20;53.60;;;13.93;35.32;100363.00;4829512;29;123730;-87
2022/03/19 11:40:43;;;;;;;15.10;10.97;;;12.30;52.80;;;14.05;34.96;100359.78;4794171;29;113807;-89
2022/03/19 11:47:14;;;;;;;17.33;11.60;;;13.20;52.20;;;14.25;33.63;100350.34;4830125;29;125274;-77
2022/03/19 11:57:07;;;;;;;23.00;12.83;;;13.90;50.60;;;14.49;32.68;100326.09;4830161;29;116646;-88
2022/03/19 12:03:19;;;;;;;14.60;10.13;;;12.60;48.60;;;14.69;32.98;100313.00;4830213;29;124847;-77
2022/03/19 12:09:54;;;;;;;19.20;11.03;;;13.40;48.70;;;14.92;32.03;100312.09;4830294;29;116493;-78
2022/03/19 12:16:04;;;;;;;12.33;9.10;;;14.40;48.60;;;15.09;32.01;100308.72;4829950;29;124905;-77
2022/03/19 12:22:13;;;;;;;15.00;9.63;;;13.40;46.80;;;15.25;31.24;100292.56;4830336;29;115058;-77
2022/03/19 12:28:21;;;;;;;17.00;10.73;;;13.40;45.10;;;15.27;30.55;100281.94;4829568;29;124835;-80
2022/03/19 12:42:10;;;;;;;18.43;11.17;;;15.10;47.30;;;15.95;30.08;100249.66;5703365;23;98329;-85
2022/03/19 12:48:22;;;;;;;12.57;9.37;;;15.30;44.40;;;15.62;29.75;100244.19;4810992;29;125184;-78
2022/03/19 12:54:33;;;;;;;13.03;8.17;;;16.00;45.00;;;15.49;29.53;100242.25;4811189;29;116763;-81
2022/03/19 13:00:55;;;;;;;13.70;8.33;;;13.40;41.60;;;15.48;28.64;100229.47;4810154;29;125172;-79
2022/03/19 13:07:06;;;;;;;9.23;6.80;;;14.80;42.10;;;15.42;29.37;100225.97;4811048;29;115347;-78
2022/03/19 13:13:15;;;;;;;6.77;6.07;;;16.20;43.60;;;15.74;29.46;100217.78;4828756;29;125326;-82
2022/03/19 13:19:28;;;;;;;9.97;7.40;;;15.20;43.30;;;16.23;28.87;100203.00;4829170;29;115441;-80
2022/03/19 13:25:38;;;;;;;11.83;6.73;;;15.50;41.30;;;16.49;28.01;100196.78;4828844;29;125244;-84
2022/03/19 13:31:46;;;;;;;7.17;5.47;;;15.90;40.50;;;16.78;27.65;100177.63;4828638;29;116283;-86
2022/03/19 13:37:55;;;;;;;7.03;4.80;;;17.80;41.80;;;17.19;27.96;100151.38;4817835;29;125173;-80
2022/03/19 13:41:01;;;;;;;9.10;6.00;;;16.40;41.40;;;17.33;27.25;100147.59;4826216;29;124441;-90
2022/03/19 13:47:24;;;;;;;8.50;5.67;;;16.30;38.80;;;17.39;26.74;100140.75;4828149;29;114243;-90
2022/03/19 13:53:51;;;;;;;8.40;5.53;;;16.80;38.80;;;17.33;26.46;100144.81;4824195;29;124697;-94
2022/03/19 13:56:17;;;;;;;6.90;4.47;;;16.40;37.90;;;17.31;26.57;100136.78;4806931;29;114165;-88
2022/03/19 14:02:26;;;;;;;6.03;3.97;;;16.70;37.50;;;17.07;26.85;100131.63;4825859;29;125207;-83
2022/03/19 14:05:01;;;;;;;4.90;3.60;;;16.60;38.30;;;17.07;27.02;100128.81;4935271;23;123828;-76
2022/03/19 14:15:55;;;;;;;3.93;2.87;;;16.60;37.80;;;17.23;27.09;100098.47;4850765;29;125141;-84
2022/03/19 14:18:30;;;;;;;3.90;2.70;;;16.50;38.20;;;17.47;26.95;100092.44;4859512;28;124057;-90
2022/03/19 14:21:18;;;;;;;4.90;3.43;;;16.80;38.70;;;17.71;26.39;100088.34;4834177;29;112065;-90
2022/03/19 14:27:27;;;;;;;4.97;3.10;;;17.10;38.20;;;17.95;26.26;100090.69;4847110;29;125194;-93
2022/03/19 14:30:13;;;;;;;5.10;3.57;;;17.20;38.00;;;17.90;26.23;100097.25;4852104;29;123722;-93
2022/03/19 14:36:21;;;;;;;4.33;3.23;;;17.40;37.70;;;17.77;26.31;100095.41;4845638;29;116057;-92
2022/03/19 14:42:50;;;;;;;5.73;2.60;;;18.30;36.40;;;17.40;25.91;100086.50;4846311;29;124761;-91
2022/03/19 14:48:57;;;;;;;4.17;3.10;;;16.80;35.70;;;17.08;25.79;100079.38;4770763;29;114802;-78
2022/03/19 14:51:42;;;;;;;3.10;2.30;;;15.40;34.10;;;17.02;25.79;100075.91;4770995;29;124630;-88
2022/03/19 14:57:52;;;;;;;3.33;2.47;;;17.10;35.50;;;16.90;25.98;100058.94;4771738;29;115251;-78
2022/03/19 15:04:00;;;;;;;4.03;2.60;;;15.30;33.70;;;16.78;25.19;100060.41;4771151;29;125199;-78
2022/03/19 15:10:12;;;;;;;3.03;2.03;;;16.30;34.40;;;17.07;25.12;100050.63;4792690;29;115336;-81
2022/03/19 15:12:41;;;;;;;4.97;2.23;;;14.90;33.40;;;17.22;25.09;100052.97;4792907;29;114589;-90
2022/03/19 15:29:54;;;;;;;3.63;2.53;;;16.50;32.30;;;16.60;23.64;100050.28;4867393;28;125134;-83
2022/03/19 15:36:59;;;;;;;4.00;3.30;;;16.10;31.60;;;16.18;24.10;100080.44;4867156;28;116173;-86
2022/03/19 15:40:04;;;;;;;4.70;3.00;;;15.70;31.50;;;15.99;25.38;100074.25;4866798;28;115736;-85
2022/03/19 15:46:31;;;;;;;4.30;2.93;;;16.00;34.40;;;15.60;26.82;100111.91;4867543;28;124783;-80
2022/03/19 15:52:40;;;;;;;11.03;3.90;;;15.10;35.70;;;15.17;27.72;100117.88;4867712;28;114778;-91
2022/03/19 15:58:49;;;;;;;5.70;4.23;;;14.60;36.90;;;14.77;28.80;100098.09;4867518;28;124754;-78
2022/03/19 16:05:05;;;;;;;5.07;3.63;;;13.40;37.40;;;14.44;29.55;100103.69;4866930;28;114961;-76
2022/03/19 16:11:16;;;;;;;7.20;3.73;;;13.30;38.40;;;14.30;29.86;100098.09;4866811;28;124799;-77
2022/03/19 16:17:24;;;;;;;3.90;2.53;;;12.60;38.10;;;14.39;29.89;100084.31;4864193;29;114974;-86
2022/03/19 16:23:33;;;;;;;3.40;2.70;;;12.70;38.20;;;14.56;29.59;100089.31;4848091;29;124285;-91
2022/03/19 16:29:43;;;;;;;4.20;2.90;;;14.10;39.30;;;14.69;29.68;100082.94;4848127;29;114947;-82
2022/03/19 16:35:51;;;;;;;4.23;2.97;;;12.90;38.70;;;14.95;29.79;100082.44;4853384;29;125089;-89
2022/03/19 16:38:19;;;;;;;4.73;3.37;;;14.30;40.20;;;15.03;29.98;100079.75;4844314;29;115187;-90
2022/03/19 16:44:32;;;;;;;6.80;4.63;;;14.50;40.50;;;15.00;30.41;100085.94;4846939;29;125172;-89
2022/03/19 16:47:56;;;;;;;6.00;4.30;;;13.50;40.20;;;14.79;31.09;100082.75;4840152;29;122930;-88
2022/03/19 16:51:22;;;;;;;4.33;3.93;;;13.30;40.80;;;14.66;31.57;100091.09;4863865;29;114580;-87
2022/03/19 16:53:51;;;;;;;4.03;2.93;;;14.20;42.20;;;14.58;31.84;100099.00;4843715;29;114802;-90
2022/03/19 16:57:26;;;;;;;4.40;3.50;;;14.10;42.60;;;14.51;32.13;100093.00;4830142;29;124051;-83
2022/03/19 17:00:23;;;;;;;4.53;3.80;;;13.80;42.60;;;14.36;32.13;100096.88;5108496;23;123879;-92
2022/03/19 17:03:29;;;;;;;4.10;3.30;;;13.70;42.90;;;14.25;32.38;100108.50;4838054;29;114991;-89
2022/03/19 17:05:55;;;;;;;6.17;3.70;;;13.80;43.10;;;14.21;32.42;100108.28;5635126;23;113597;-82
2022/03/19 17:25:42;;;;;;;;;;;;;;;;;;;;;
2022/03/19 17:45:25;;;;;;;5.57;4.60;;;11.50;43.90;;;13.19;34.12;100132.00;4828703;29;115920;-79
2022/03/19 17:51:39;;;;;;;6.30;5.27;;;12.60;45.30;;;12.87;34.45;100132.66;4827679;29;124784;-88
2022/03/19 18:10:26;;;;;;;8.57;6.20;;;11.60;46.50;;;12.03;35.99;100127.38;5358780;23;98756;-78
2022/03/19 18:16:35;;;;;;;6.70;5.33;;;11.50;47.20;;;11.86;35.90;100128.63;4828254;29;124961;-77
2022/03/19 18:26:28;;;;;;;6.63;4.70;;;10.20;46.60;;;11.79;36.38;100110.63;4827686;29;125280;-86
2022/03/19 18:32:42;;;;;;;10.10;6.50;;;11.20;48.00;;;11.59;37.04;100106.91;4828014;29;114681;-78
2022/03/19 18:38:50;;;;;;;6.13;5.10;;;10.00;47.60;;;11.50;37.15;100103.94;4812598;29;125130;-84
2022/03/19 18:44:59;;;;;;;5.53;4.20;;;10.20;48.20;;;11.52;37.77;100105.56;4827602;29;116279;-84
2022/03/19 18:51:11;;;;;;;7.87;6.17;;;10.90;49.30;;;11.43;37.70;100111.72;4827746;29;125166;-78
2022/03/19 18:57:20;;;;;;;7.77;5.60;;;10.80;49.70;;;11.31;37.97;100104.84;4812540;29;115167;-80
2022/03/19 19:06:08;;;;;;;7.77;5.63;;;10.80;50.30;;;11.30;38.36;100092.16;5865941;23;98921;-82
2022/03/19 19:12:19;;;;;;;6.90;4.80;;;9.90;50.70;;;11.28;38.44;100086.88;4846226;29;117014;-75
2022/03/19 19:18:28;;;;;;;6.13;5.33;;;11.50;51.40;;;11.28;38.44;100089.66;4846068;29;124800;-76
2022/03/19 19:24:40;;;;;;;6.53;5.07;;;9.50;50.90;;;11.24;38.44;100081.09;4846248;29;114837;-77
2022/03/19 20:05:54;;;;;;;7.40;6.30;;;10.50;52.20;;;11.11;39.02;100034.72;5647679;23;98487;-83
2022/03/19 20:12:04;;;;;;;8.20;6.50;;;10.40;52.20;;;10.97;39.37;100012.41;4810379;29;125269;-83
2022/03/19 20:18:13;;;;;;;13.37;6.40;;;9.20;52.30;;;10.86;39.57;99999.75;4811766;29;115196;-77
2022/03/19 20:24:36;;;;;;;8.50;7.10;;;8.90;52.20;;;10.81;39.63;100002.53;4791506;29;125261;-86
2022/03/19 20:28:00;;;;;;;8.23;6.77;;;9.90;53.00;;;10.76;39.16;100000.63;4807312;29;124464;-81
2022/03/19 20:41:34;;;;;;;11.83;7.50;;;10.10;52.70;;;10.70;39.59;99981.59;5038507;23;96772;31
2022/03/19 20:56:23;;;;;;;9.33;7.83;;;9.00;53.10;;;10.57;40.12;99958.97;4847630;29;115041;-81
2022/03/19 21:06:23;;;;;;;12.50;9.17;;;9.20;53.80;;;10.45;40.30;99944.69;4847408;29;115304;-80
2022/03/19 21:17:26;;;;;;;10.57;7.50;;;9.80;54.40;;;10.38;39.92;99914.56;5561062;23;97951;-82
2022/03/19 21:23:34;;;;;;;9.43;7.80;;;8.20;53.10;;;10.35;40.39;99917.91;4828949;29;125092;-79
